createdAt,value
2018-03-06T00:01:47.689Z,35.67
2018-03-06T00:04:15.301Z,29.77
2018-03-06T00:06:43.124Z,74.43
2018-03-06T00:09:10.944Z,65.83
2018-03-06T00:11:38.573Z,48.10
2018-03-06T00:14:06.382Z,43.20
2018-03-06T00:16:33.954Z,36.33
2018-03-06T00:19:01.555Z,28.87
2018-03-06T00:21:29.143Z,25.73
2018-03-06T00:23:56.792Z,30.13
2018-03-06T00:26:24.388Z,28.53
2018-03-06T00:28:52.149Z,30.83
2018-03-06T00:31:19.909Z,28.53
2018-03-06T00:33:47.504Z,25.10
2018-03-06T00:36:15.341Z,23.40
2018-03-06T00:38:42.929Z,22.70
2018-03-06T00:41:10.514Z,50.90
2018-03-06T00:43:38.294Z,67.03
2018-03-06T00:46:05.920Z,64.37
2018-03-06T00:48:33.558Z,64.40
2018-03-06T00:51:01.320Z,65.00
2018-03-06T00:53:29.057Z,99.93
2018-03-06T00:55:56.653Z,74.70
2018-03-06T00:58:24.245Z,69.13
2018-03-06T01:00:51.906Z,62.57
2018-03-06T01:03:19.493Z,60.63
2018-03-06T01:05:47.259Z,63.53
2018-03-06T01:08:14.858Z,59.07
2018-03-06T01:10:42.458Z,53.73
2018-03-06T01:13:10.088Z,50.10
2018-03-06T01:15:37.706Z,50.27
2018-03-06T01:18:05.297Z,53.07
2018-03-06T01:20:33.062Z,62.37
2018-03-06T01:23:00.881Z,60.20
2018-03-06T01:25:28.520Z,57.40
2018-03-06T01:27:56.114Z,56.67
2018-03-06T01:30:23.939Z,58.73
2018-03-06T01:32:51.531Z,58.50
2018-03-06T01:35:19.234Z,49.63
2018-03-06T01:37:47.090Z,49.60
2018-03-06T01:40:14.704Z,58.10
2018-03-06T01:42:42.286Z,58.53
2018-03-06T01:45:09.880Z,61.80
2018-03-06T01:47:37.472Z,61.27
2018-03-06T01:50:05.133Z,54.43
2018-03-06T01:52:32.733Z,46.53
2018-03-06T01:55:00.322Z,35.33
2018-03-06T01:57:27.953Z,30.80
2018-03-06T01:59:55.543Z,27.57
2018-03-06T02:02:23.202Z,30.57
2018-03-06T02:04:50.850Z,51.13
2018-03-06T02:07:18.495Z,46.47
2018-03-06T02:09:46.089Z,39.70
2018-03-06T02:12:13.845Z,57.53
2018-03-06T02:14:41.667Z,55.43
2018-03-06T02:17:09.360Z,53.57
2018-03-06T02:19:37.175Z,58.70
2018-03-06T02:22:04.894Z,48.70
2018-03-06T02:24:32.473Z,50.50
2018-03-06T02:27:00.107Z,41.93
2018-03-06T02:29:27.694Z,40.43
2018-03-06T02:31:55.299Z,46.47
2018-03-06T02:34:22.877Z,44.70
2018-03-06T02:36:50.720Z,44.90
2018-03-06T02:39:18.378Z,44.27
2018-03-06T02:41:46.156Z,52.47
2018-03-06T02:44:13.748Z,46.53
2018-03-06T02:46:41.343Z,41.67
2018-03-06T02:49:09.074Z,39.30
2018-03-06T02:51:36.768Z,37.13
2018-03-06T02:54:04.380Z,51.10
2018-03-06T02:56:31.965Z,72.50
2018-03-06T02:58:59.782Z,48.03
2018-03-06T03:01:27.367Z,48.80
2018-03-06T03:03:55.026Z,60.30
2018-03-06T03:06:22.836Z,34.27
2018-03-06T03:08:50.657Z,29.77
2018-03-06T03:11:18.477Z,22.20
2018-03-06T03:13:46.058Z,18.63
2018-03-06T03:16:13.706Z,18.50
2018-03-06T03:18:41.294Z,30.83
2018-03-06T03:21:08.876Z,31.90
2018-03-06T03:23:36.475Z,20.60
2018-03-06T03:26:04.061Z,22.20
2018-03-06T03:28:31.783Z,32.60
2018-03-06T03:30:59.518Z,45.07
2018-03-06T03:33:27.339Z,47.73
2018-03-06T03:35:55.132Z,48.83
2018-03-06T03:38:22.715Z,53.03
2018-03-06T03:40:50.380Z,49.37
2018-03-06T03:43:17.965Z,50.00
2018-03-06T03:45:45.531Z,49.40
2018-03-06T03:48:13.342Z,55.37
2018-03-06T03:50:40.941Z,50.23
2018-03-06T03:53:08.610Z,54.63
2018-03-06T03:55:36.195Z,56.23
2018-03-06T03:58:03.766Z,65.43
2018-03-06T04:00:31.373Z,62.17
2018-03-06T04:02:59.134Z,64.27
2018-03-06T04:05:26.783Z,64.60
2018-03-06T04:07:54.585Z,62.67
2018-03-06T04:10:22.406Z,67.60
2018-03-06T04:12:50.222Z,69.40
2018-03-06T04:15:17.854Z,66.83
2018-03-06T04:17:45.506Z,65.13
2018-03-06T04:20:13.100Z,75.47
2018-03-06T04:22:40.864Z,77.97
2018-03-06T04:25:08.814Z,61.30
2018-03-06T04:27:36.410Z,78.90
2018-03-06T04:30:04.349Z,57.40
2018-03-06T04:32:31.949Z,59.70
2018-03-06T04:34:59.787Z,53.83
2018-03-06T04:37:27.558Z,41.80
2018-03-06T04:39:55.226Z,54.83
2018-03-06T04:42:22.880Z,36.20
2018-03-06T04:44:50.473Z,36.60
2018-03-06T04:47:18.071Z,35.90
2018-03-06T04:49:45.674Z,39.10
2018-03-06T04:52:13.512Z,46.83
2018-03-06T04:54:41.331Z,48.47
2018-03-06T04:57:08.945Z,53.37
2018-03-06T04:59:36.767Z,49.13
2018-03-06T05:02:04.354Z,47.90
2018-03-06T05:04:31.941Z,46.57
2018-03-06T05:06:59.569Z,47.73
2018-03-06T05:09:27.153Z,47.93
2018-03-06T05:11:54.939Z,49.53
2018-03-06T05:14:22.559Z,48.97
2018-03-06T05:16:50.392Z,48.33
2018-03-06T05:19:18.034Z,48.53
2018-03-06T05:21:45.679Z,45.67
2018-03-06T05:24:13.222Z,63.53
2018-03-06T05:26:40.839Z,61.37
2018-03-06T05:29:08.438Z,50.20
2018-03-06T05:31:36.301Z,44.27
2018-03-06T05:34:04.118Z,50.63
2018-03-06T05:36:31.723Z,62.83
2018-03-06T05:38:59.316Z,56.67
2018-03-06T05:41:26.915Z,50.87
2018-03-06T05:43:54.560Z,48.20
2018-03-06T05:46:22.376Z,42.20
2018-03-06T05:48:49.907Z,40.43
2018-03-06T05:51:17.506Z,43.63
2018-03-06T05:53:45.076Z,40.73
2018-03-06T05:56:12.834Z,40.03
2018-03-06T05:58:40.430Z,44.07
2018-03-06T06:01:08.009Z,44.97
2018-03-06T06:03:35.690Z,44.57
2018-03-06T06:06:03.270Z,42.23
2018-03-06T06:08:30.865Z,44.20
2018-03-06T06:10:58.577Z,45.03
2018-03-06T06:13:26.449Z,42.47
2018-03-06T06:15:54.055Z,42.37
2018-03-06T06:18:21.618Z,53.73
2018-03-06T06:20:49.200Z,112.83
2018-03-06T06:23:16.834Z,134.90
2018-03-06T06:25:44.402Z,133.60
2018-03-06T06:28:11.990Z,107.13
2018-03-06T06:30:39.832Z,95.37
2018-03-06T06:33:07.418Z,63.47
2018-03-06T06:35:34.998Z,89.63
2018-03-06T06:38:02.640Z,45.43
2018-03-06T06:40:30.205Z,52.33
2018-03-06T06:42:57.769Z,66.60
2018-03-06T06:45:25.394Z,92.97
2018-03-06T06:47:52.954Z,50.43
2018-03-06T06:50:20.562Z,53.80
2018-03-06T06:52:48.350Z,46.73
2018-03-06T06:55:15.914Z,42.40
2018-03-06T06:57:43.727Z,44.83
2018-03-06T07:00:11.354Z,46.40
2018-03-06T07:02:39.140Z,47.93
2018-03-06T07:05:06.702Z,82.27
2018-03-06T07:07:34.333Z,139.20
2018-03-06T07:10:01.900Z,44.23
2018-03-06T07:12:29.470Z,41.50
2018-03-06T07:14:57.251Z,43.43
2018-03-06T07:17:24.816Z,47.10
2018-03-06T07:19:52.384Z,45.53
2018-03-06T07:22:20.016Z,44.83
2018-03-06T07:24:47.575Z,44.27
2018-03-06T07:27:15.143Z,46.20
2018-03-06T07:29:43.003Z,43.60
2018-03-06T07:32:10.562Z,48.53
2018-03-06T07:34:38.121Z,59.57
2018-03-06T07:37:05.763Z,48.33
2018-03-06T07:39:33.322Z,42.73
2018-03-06T07:42:01.047Z,47.30
2018-03-06T07:44:28.672Z,52.67
2018-03-06T07:46:56.268Z,47.50
2018-03-06T07:49:23.834Z,46.40
2018-03-06T07:51:51.458Z,42.93
2018-03-06T07:54:19.024Z,38.83
2018-03-06T07:56:46.588Z,35.90
2018-03-06T07:59:14.215Z,37.67
2018-03-06T08:01:41.956Z,39.37
2018-03-06T08:04:09.671Z,42.73
2018-03-06T08:06:37.290Z,42.50
2018-03-06T08:09:04.915Z,41.50
2018-03-06T08:11:32.662Z,43.20
2018-03-06T08:14:00.296Z,42.17
2018-03-06T08:16:28.098Z,41.43
2018-03-06T08:18:55.657Z,44.00
2018-03-06T08:21:23.278Z,46.97
2018-03-06T08:23:50.848Z,40.07
2018-03-06T08:26:18.668Z,69.63
2018-03-06T08:28:46.488Z,38.70
2018-03-06T08:31:14.206Z,36.97
2018-03-06T08:33:41.766Z,36.93
2018-03-06T08:36:09.375Z,44.13
2018-03-06T08:38:36.938Z,46.00
2018-03-06T08:41:04.505Z,43.60
2018-03-06T08:43:32.081Z,37.87
2018-03-06T08:45:59.641Z,36.67
2018-03-06T08:48:27.260Z,32.90
2018-03-06T08:50:54.858Z,31.20
2018-03-06T08:53:22.665Z,36.50
2018-03-06T08:55:50.225Z,36.93
2018-03-06T08:58:17.977Z,38.73
2018-03-06T09:00:45.819Z,42.43
2018-03-06T09:03:13.538Z,40.47
2018-03-06T09:05:41.149Z,39.33
2018-03-06T09:08:08.734Z,41.40
2018-03-06T09:10:36.330Z,43.93
2018-03-06T09:13:03.947Z,42.27
2018-03-06T09:15:31.690Z,41.77
2018-03-06T09:17:59.245Z,41.93
2018-03-06T09:20:26.806Z,43.27
2018-03-06T09:22:54.362Z,38.33
2018-03-06T09:25:22.198Z,43.50
2018-03-06T09:27:49.916Z,40.93
2018-03-06T09:30:17.613Z,39.07
2018-03-06T09:32:45.190Z,40.20
2018-03-06T09:35:12.746Z,38.63
2018-03-06T09:37:40.588Z,53.30
2018-03-06T09:40:08.168Z,56.47
2018-03-06T09:42:35.722Z,43.93
2018-03-06T09:45:03.308Z,49.37
2018-03-06T09:47:30.862Z,40.60
2018-03-06T09:49:58.678Z,42.70
2018-03-06T09:52:26.248Z,39.17
2018-03-06T09:54:53.820Z,37.60
2018-03-06T09:57:21.390Z,34.50
2018-03-06T09:59:49.149Z,38.40
2018-03-06T10:02:16.770Z,36.53
2018-03-06T10:04:44.334Z,34.07
2018-03-06T10:07:12.101Z,33.87
2018-03-06T10:09:39.710Z,34.87
2018-03-06T10:12:07.270Z,41.00
2018-03-06T10:14:35.156Z,40.57
2018-03-06T10:17:02.972Z,37.60
2018-03-06T10:19:30.569Z,44.77
2018-03-06T10:21:58.133Z,43.73
2018-03-06T10:24:25.675Z,42.00
2018-03-06T10:26:53.290Z,40.17
2018-03-06T10:29:20.954Z,36.30
2018-03-06T10:31:48.515Z,37.27
2018-03-06T10:34:16.110Z,38.47
2018-03-06T10:36:43.916Z,36.03
2018-03-06T10:39:11.735Z,37.43
2018-03-06T10:41:39.294Z,36.40
2018-03-06T10:44:06.849Z,44.83
2018-03-06T10:46:34.480Z,93.67
2018-03-06T10:49:02.056Z,52.67
2018-03-06T10:51:29.924Z,44.70
2018-03-06T10:53:57.616Z,36.77
2018-03-06T10:56:25.173Z,35.90
2018-03-06T10:58:52.769Z,42.17
2018-03-06T11:01:25.345Z,34.90
2018-03-06T11:03:53.134Z,92.57
2018-03-06T11:06:21.852Z,65.37
2018-03-06T11:08:49.476Z,50.23
2018-03-06T11:11:17.069Z,56.10
2018-03-06T11:13:44.634Z,90.67
2018-03-06T11:16:12.338Z,42.20
2018-03-06T11:18:39.908Z,162.20
2018-03-06T11:21:07.469Z,34.07
2018-03-06T11:23:35.279Z,37.50
2018-03-06T11:26:02.841Z,43.53
2018-03-06T11:28:30.462Z,36.20
2018-03-06T11:30:58.232Z,85.53
2018-03-06T11:33:25.799Z,90.60
2018-03-06T11:35:53.671Z,39.57
2018-03-06T11:38:21.229Z,38.70
2018-03-06T11:40:48.790Z,36.43
2018-03-06T11:43:16.622Z,33.43
2018-03-06T11:45:44.185Z,29.70
2018-03-06T11:48:11.958Z,36.13
2018-03-06T11:50:39.526Z,35.67
2018-03-06T11:53:07.098Z,34.37
2018-03-06T11:55:34.722Z,34.23
2018-03-06T11:58:02.422Z,36.63
2018-03-06T12:00:29.989Z,34.07
2018-03-06T12:02:57.657Z,31.23
2018-03-06T12:05:25.218Z,31.80
2018-03-06T12:07:52.827Z,30.20
2018-03-06T12:10:20.390Z,28.23
2018-03-06T12:12:47.970Z,23.53
2018-03-06T12:15:15.561Z,34.60
2018-03-06T12:17:43.162Z,29.57
2018-03-06T12:20:10.794Z,30.40
2018-03-06T12:22:38.607Z,26.67
2018-03-06T12:25:06.210Z,27.83
2018-03-06T12:27:33.782Z,22.70
2018-03-06T12:30:01.355Z,22.90
2018-03-06T12:32:28.981Z,25.43
2018-03-06T12:34:56.710Z,25.10
2018-03-06T12:37:24.282Z,22.53
2018-03-06T12:39:52.153Z,23.03
2018-03-06T12:42:19.740Z,24.67
2018-03-06T12:44:47.358Z,60.53
2018-03-06T12:47:15.186Z,42.97
2018-03-06T12:49:42.897Z,35.60
2018-03-06T12:52:10.639Z,25.00
2018-03-06T12:54:38.215Z,40.67
2018-03-06T12:57:05.843Z,26.93
2018-03-06T12:59:33.492Z,90.27
2018-03-06T13:02:01.296Z,30.37
2018-03-06T13:04:28.910Z,36.93
2018-03-06T13:06:56.482Z,22.93
2018-03-06T13:09:24.109Z,29.90
2018-03-06T13:11:51.865Z,35.87
2018-03-06T13:14:19.494Z,29.43
2018-03-06T13:16:47.082Z,27.37
2018-03-06T13:19:14.650Z,25.50
2018-03-06T13:21:42.437Z,30.70
2018-03-06T13:24:10.046Z,214.33
2018-03-06T13:26:37.610Z,64.20
2018-03-06T13:29:05.286Z,36.43
2018-03-06T13:31:33.009Z,28.37
2018-03-06T13:34:00.655Z,28.77
2018-03-06T13:36:28.446Z,42.83
2018-03-06T13:38:56.057Z,24.60
2018-03-06T13:41:23.881Z,31.73
2018-03-06T13:43:51.700Z,27.77
2018-03-06T13:46:19.519Z,31.63
2018-03-06T13:48:47.085Z,28.47
2018-03-06T13:51:14.654Z,27.67
2018-03-06T13:53:42.221Z,34.40
2018-03-06T13:56:09.831Z,37.43
2018-03-06T13:58:37.446Z,34.90
2018-03-06T14:01:05.022Z,50.17
2018-03-06T14:03:32.586Z,29.20
2018-03-06T14:06:00.162Z,28.63
2018-03-06T14:08:27.770Z,36.63
2018-03-06T14:10:55.482Z,35.33
2018-03-06T14:13:23.215Z,30.80
2018-03-06T14:15:51.136Z,33.87
2018-03-06T14:18:18.745Z,38.10
2018-03-06T14:20:46.471Z,27.90
2018-03-06T14:23:14.109Z,27.17
2018-03-06T14:25:41.656Z,29.37
2018-03-06T14:28:09.408Z,31.40
2018-03-06T14:30:37.244Z,29.20
2018-03-06T14:33:05.061Z,25.40
2018-03-06T14:35:32.830Z,27.47
2018-03-06T14:38:00.395Z,31.97
2018-03-06T14:40:28.088Z,28.53
2018-03-06T14:42:55.654Z,28.60
2018-03-06T14:45:23.213Z,27.50
2018-03-06T14:47:51.068Z,28.10
2018-03-06T14:50:18.886Z,27.53
2018-03-06T14:52:46.460Z,30.87
2018-03-06T14:55:14.224Z,30.27
2018-03-06T14:57:41.780Z,33.37
2018-03-06T15:00:09.448Z,37.80
2018-03-06T15:02:36.991Z,43.60
2018-03-06T15:05:04.793Z,71.50
2018-03-06T15:07:32.495Z,40.77
2018-03-06T15:10:00.230Z,42.70
2018-03-06T15:12:27.873Z,40.13
2018-03-06T15:14:55.667Z,51.27
2018-03-06T15:17:23.484Z,126.87
2018-03-06T15:19:51.059Z,137.37
2018-03-06T15:22:18.820Z,100.80
2018-03-06T15:24:46.453Z,50.03
2018-03-06T15:27:14.028Z,33.20
2018-03-06T15:29:41.617Z,110.43
2018-03-06T15:32:09.299Z,75.97
2018-03-06T15:34:37.110Z,38.17
2018-03-06T15:37:04.928Z,31.27
2018-03-06T15:39:32.497Z,34.27
2018-03-06T15:42:00.068Z,35.57
2018-03-06T15:44:27.659Z,39.67
2018-03-06T15:46:55.399Z,43.33
2018-03-06T15:49:22.999Z,49.57
2018-03-06T15:51:50.557Z,50.97
2018-03-06T15:54:18.354Z,90.97
2018-03-06T15:56:46.092Z,102.63
2018-03-06T15:59:13.657Z,75.87
2018-03-06T16:01:41.301Z,64.60
2018-03-06T16:04:09.126Z,137.93
2018-03-06T16:06:36.859Z,95.10
2018-03-06T16:09:04.552Z,96.53
2018-03-06T16:11:32.281Z,78.07
2018-03-06T16:14:00.099Z,78.17
2018-03-06T16:16:27.917Z,237.53
2018-03-06T16:18:55.486Z,223.83
2018-03-06T16:21:23.140Z,130.33
2018-03-06T16:23:50.872Z,95.27
2018-03-06T16:26:18.558Z,70.63
2018-03-06T16:28:46.118Z,67.53
2018-03-06T16:31:13.925Z,56.37
2018-03-06T16:33:41.744Z,52.97
2018-03-06T16:36:09.317Z,58.87
2018-03-06T16:38:36.941Z,60.03
2018-03-06T16:41:04.514Z,56.93
2018-03-06T16:43:32.096Z,67.13
2018-03-06T16:45:59.674Z,69.60
2018-03-06T16:48:27.242Z,67.10
2018-03-06T16:50:54.877Z,74.53
2018-03-06T16:53:22.687Z,73.70
2018-03-06T16:55:50.505Z,63.27
2018-03-06T16:58:18.108Z,62.53
2018-03-06T17:00:45.820Z,65.83
2018-03-06T17:03:13.459Z,84.27
2018-03-06T17:05:41.028Z,99.40
2018-03-06T17:08:08.750Z,73.43
2018-03-06T17:10:36.513Z,242.67
2018-03-06T17:13:04.086Z,173.47
2018-03-06T17:15:31.722Z,74.33
2018-03-06T17:17:59.282Z,52.43
2018-03-06T17:20:26.842Z,75.83
2018-03-06T17:22:54.428Z,193.70
2018-03-06T17:25:21.996Z,166.43
2018-03-06T17:27:49.638Z,126.03
2018-03-06T17:30:17.457Z,100.03
2018-03-06T17:32:45.022Z,76.97
2018-03-06T17:35:12.595Z,66.93
2018-03-06T17:37:40.157Z,69.10
2018-03-06T17:40:07.780Z,63.80
2018-03-06T17:42:35.544Z,161.33
2018-03-06T17:45:03.122Z,143.03
2018-03-06T17:47:30.821Z,136.90
2018-03-06T17:49:58.498Z,172.33
2018-03-06T17:52:26.221Z,99.03
2018-03-06T17:54:54.937Z,83.00
2018-03-06T17:57:22.506Z,87.03
2018-03-06T17:59:50.121Z,87.20
2018-03-06T18:02:17.692Z,117.30
2018-03-06T18:04:45.510Z,60.27
2018-03-06T18:07:13.331Z,60.90
2018-03-06T18:09:40.902Z,74.00
2018-03-06T18:12:08.664Z,71.20
2018-03-06T18:14:36.281Z,76.27
2018-03-06T18:17:04.091Z,93.80
2018-03-06T18:19:31.909Z,78.80
2018-03-06T18:21:59.540Z,67.77
2018-03-06T18:24:27.353Z,61.53
2018-03-06T18:26:55.174Z,62.33
2018-03-06T18:29:22.982Z,65.20
2018-03-06T18:31:50.595Z,67.20
2018-03-06T18:34:18.175Z,68.93
2018-03-06T18:36:45.897Z,70.20
2018-03-06T18:39:13.420Z,83.83
2018-03-06T18:41:41.162Z,70.13
2018-03-06T18:44:08.783Z,77.57
2018-03-06T18:46:36.335Z,74.80
2018-03-06T18:49:04.121Z,65.30
2018-03-06T18:51:31.690Z,67.60
2018-03-06T18:53:59.265Z,84.47
2018-03-06T18:56:26.819Z,149.47
2018-03-06T18:58:54.439Z,89.90
2018-03-06T19:04:35.618Z,68.50
2018-03-06T19:07:08.337Z,75.40
2018-03-06T19:09:35.960Z,69.93
2018-03-06T19:12:03.658Z,86.03
2018-03-06T19:14:31.233Z,78.57
2018-03-06T19:16:58.864Z,81.17
2018-03-06T19:19:26.421Z,63.83
2018-03-06T19:21:53.986Z,56.37
2018-03-06T19:24:21.964Z,55.87
2018-03-06T19:26:49.511Z,63.63
2018-03-06T19:29:17.065Z,94.60
2018-03-06T19:31:44.682Z,101.97
2018-03-06T19:34:12.435Z,82.47
2018-03-06T19:36:40.252Z,79.67
2018-03-06T19:39:07.963Z,68.30
2018-03-06T19:41:35.791Z,76.77
2018-03-06T19:44:03.610Z,76.53
2018-03-06T19:46:31.427Z,74.57
2018-03-06T19:48:58.993Z,114.63
2018-03-06T19:51:26.763Z,111.37
2018-03-06T19:53:54.583Z,78.77
2018-03-06T19:56:22.186Z,68.93
2018-03-06T19:58:49.809Z,74.93
2018-03-06T20:01:17.735Z,70.77
2018-03-06T20:03:45.294Z,71.20
2018-03-06T20:06:12.858Z,58.63
2018-03-06T20:08:40.890Z,62.70
2018-03-06T20:11:08.446Z,69.63
2018-03-06T20:13:36.120Z,76.60
2018-03-06T20:16:04.145Z,82.30
2018-03-06T20:18:31.723Z,75.53
2018-03-06T20:20:59.481Z,93.60
2018-03-06T20:23:27.400Z,106.53
2018-03-06T20:26:00.035Z,88.97
2018-03-06T20:28:27.785Z,84.90
2018-03-06T20:31:01.193Z,78.53
2018-03-06T20:33:29.110Z,83.13
2018-03-06T20:35:56.928Z,85.80
2018-03-06T20:38:30.196Z,105.03
2018-03-06T20:40:58.011Z,91.70
2018-03-06T20:43:25.573Z,78.00
2018-03-06T20:45:58.858Z,79.73
2018-03-06T20:48:26.438Z,67.53
2018-03-06T20:50:53.997Z,64.13
2018-03-06T20:53:27.238Z,92.33
2018-03-06T20:55:55.032Z,144.13
2018-03-06T20:58:22.598Z,90.63
2018-03-06T21:00:50.368Z,74.33
2018-03-06T21:03:17.929Z,73.50
2018-03-06T21:05:45.704Z,99.53
2018-03-06T21:08:13.286Z,73.27
2018-03-06T21:10:40.854Z,74.63
2018-03-06T21:13:08.419Z,88.17
2018-03-06T21:15:36.051Z,100.47
2018-03-06T21:18:03.893Z,123.77
2018-03-06T21:20:31.711Z,114.53
2018-03-06T21:22:59.287Z,111.97
2018-03-06T21:25:27.010Z,88.13
2018-03-06T21:27:54.725Z,74.67
2018-03-06T21:30:22.441Z,81.57
2018-03-06T21:32:50.003Z,76.67
2018-03-06T21:35:17.562Z,80.27
2018-03-06T21:37:45.134Z,71.57
2018-03-06T21:40:12.710Z,86.57
2018-03-06T21:42:40.274Z,75.50
2018-03-06T21:45:07.906Z,77.40
2018-03-06T21:47:35.708Z,71.67
2018-03-06T21:50:03.292Z,78.73
2018-03-06T21:52:30.893Z,68.90
2018-03-06T21:54:58.661Z,63.60
2018-03-06T21:57:26.225Z,63.23
2018-03-06T21:59:53.801Z,63.63
2018-03-06T22:02:21.365Z,63.27
2018-03-06T22:04:49.094Z,54.83
2018-03-06T22:07:16.835Z,135.77
2018-03-06T22:09:44.398Z,76.07
2018-03-06T22:12:11.951Z,272.50
2018-03-06T22:14:39.705Z,122.63
2018-03-06T22:17:07.256Z,135.87
2018-03-06T22:19:34.813Z,126.53
2018-03-06T22:22:02.414Z,186.50
2018-03-06T22:24:30.152Z,114.63
2018-03-06T22:26:57.994Z,127.70
2018-03-06T22:29:25.566Z,61.87
2018-03-06T22:31:53.122Z,40.73
2018-03-06T22:34:20.685Z,42.80
2018-03-06T22:36:48.465Z,39.70
2018-03-06T22:39:16.026Z,33.43
2018-03-06T22:41:43.763Z,29.90
2018-03-06T22:44:11.331Z,29.90
2018-03-06T22:46:38.927Z,26.27
2018-03-06T22:49:06.478Z,29.47
2018-03-06T22:51:34.041Z,31.20
2018-03-06T22:54:01.790Z,29.73
2018-03-06T22:56:29.346Z,28.30
2018-03-06T22:58:56.917Z,27.60
2018-03-06T23:01:24.482Z,17.60
2018-03-06T23:03:52.261Z,23.40
2018-03-06T23:06:19.826Z,21.30
2018-03-06T23:08:47.568Z,25.03
2018-03-06T23:11:15.126Z,17.87
2018-03-06T23:13:42.703Z,18.00
2018-03-06T23:16:10.257Z,17.17
2018-03-06T23:18:37.822Z,13.67
2018-03-06T23:21:05.409Z,17.00
2018-03-06T23:23:33.203Z,19.67
2018-03-06T23:26:00.923Z,17.80
2018-03-06T23:28:28.740Z,18.23
2018-03-06T23:30:56.298Z,17.13
2018-03-06T23:33:24.076Z,17.07
2018-03-06T23:35:51.895Z,19.03
2018-03-06T23:38:19.503Z,18.43
2018-03-06T23:40:47.066Z,17.50
2018-03-06T23:43:14.632Z,16.83
2018-03-06T23:45:42.366Z,16.40
2018-03-06T23:48:10.087Z,16.53
2018-03-06T23:50:37.661Z,15.63
2018-03-06T23:53:05.223Z,15.77
2018-03-06T23:55:32.782Z,16.37
2018-03-06T23:58:00.358Z,15.37
